Latest Coastal Weather Observations for Coolangatta (QLD)

IDN60701

Issued at 4:42 am EST Thursday 25 April 2024 (issued every 10 minutes, with the page automatically refreshed every 10 minutes)

About coastal observations | Map of coastal stations | Coastal observations for NSW | Marine services | Other Formats
Station Details ID: 040717 Name: COOLANGATTA Lat: -28.17 Lon: 153.51 Height: 4.0 m
Data from the previous 72 hours. | See also: Recent months at Coolangatta (QLD)

Observations at Coolangatta are collected in the Queensland time zone, which does not include daylight savings during the summer period. Therefore 'Rain since 9am' totals and other values are based on the Queensland time zone.

Date/Time
EST
Wind Sea
Height
m
Swell Vis
km
Cloud Weather Temp
°C
Press
MSL
hPa
Rain since
9am
mm
Dir  Spd
kts
Gust
kts
Height
m
Period
s
Dir
25/04:30am SSW 3 4 - - - - 10 Clear - 14.5 1015.2 0.2
25/04:00am SSW 2 3 - - - - 10 - - 15.2 1015.0 0.2
25/03:30am CALM 0 0 - - - - 10 - - 15.1 1015.0 0.2
25/03:01am SSW 2 3 - - - - 10 - - 15.6 1015.2 0.2
25/03:00am SSW 2 3 - - - - 10 - - 15.6 1015.2 0.2
25/02:40am SW 2 4 - - - - 5 - - 14.9 1015.3 0.2
25/02:30am CALM 0 0 - - - - 10 - - 15.1 1015.2 0.2
25/02:00am WSW 3 4 - - - - 10 - - 15.9 1015.9 0.2
25/01:30am SW 3 4 - - - - 10 - - 15.9 1015.9 0.2
25/01:00am CALM 0 2 - - - - 10 - - 16.1 1016.4 0.2
25/12:30am CALM 0 0 - - - - 10 - - 16.7 1016.9 0.2
25/12:00am SW 2 3 - - - - 10 - - 16.8 1017.0 0.2
 
Date/Time
EST
Wind Sea
Height
m
Swell Vis
km
Cloud Weather Temp
°C
Press
MSL
hPa
Rain since
9am
mm
Dir  Spd
kts
Gust
kts
Height
m
Period
s
Dir
24/11:30pm CALM 0 0 - - - - 10 - - 17.2 1017.2 0.2
24/11:00pm SW 1 4 - - - - 10 - - 17.2 1017.4 0.2
24/10:30pm WSW 1 4 - - - - 10 - - 17.5 1017.4 0.2
24/10:00pm CALM 0 0 - - - - 10 - - 17.8 1017.9 0.2
24/09:30pm CALM 0 0 - - - - 10 - - 18.1 1017.8 0.2
24/09:00pm SW 7 8 - - - - 10 - - 18.2 1018.2 0.2
24/08:30pm SW 7 9 - - - - 10 - - 18.4 1018.1 0.2
24/08:00pm WSW 7 8 - - - - 10 - - 18.7 1018.0 0.2
24/07:30pm WSW 5 6 - - - - 10 - - 18.8 1018.1 0.2
24/07:00pm WSW 6 7 - - - - 10 - - 19.4 1017.9 0.2
24/06:30pm SW 6 7 - - - - 10 - - 19.7 1017.8 0.2
24/06:00pm WSW 5 6 - - - - 10 - - 20.0 1017.6 0.2
24/05:30pm SSW 1 3 - - - - 10 - - 20.4 1017.4 0.2
24/05:00pm SE 4 6 - - - - 10 - - 22.2 1017.1 0.2
24/04:30pm E 5 7 - - - - 10 Partly cloudy - 23.3 1017.1 0.2
24/04:00pm ESE 8 11 - - - - 10 Partly cloudy - 23.1 1017.1 0.2
24/03:30pm ESE 9 11 - - - - 10 Partly cloudy - 23.4 1016.9 0.2
24/03:00pm SE 9 11 - - - - 10 Cloudy - 23.6 1017.0 0.2
24/02:30pm ESE 9 13 - - - - 10 - - 23.7 1017.2 0.2
24/02:00pm SE 9 12 - - - - 10 Partly cloudy - 24.3 1017.2 0.2
24/01:30pm ESE 9 13 - - - - 10 - - 24.9 1017.3 0.2
24/01:00pm ESE 9 12 - - - - 10 - - 24.4 1017.3 0.2
24/12:30pm E 10 13 - - - - 10 Partly cloudy - 24.7 1017.6 0.2
24/12:00pm ENE 10 13 - - - - 10 Partly cloudy - 25.4 1018.2 0.2
24/11:30am NE 7 11 - - - - 10 Partly cloudy - 25.7 1018.6 0.2
24/11:00am SW 5 7 - - - - 10 - - 25.1 1019.1 0.2
24/10:30am WSW 4 6 - - - - 10 Partly cloudy - 25.1 1019.5 0.2
24/10:00am SSW 4 6 - - - - 10 - - 24.4 1019.8 0.0
24/09:30am SSW 4 6 - - - - 10 - - 23.9 1020.1 0.0
24/09:00am S 5 7 - - - - 10 - - 23.5 1020.0 0.6
24/08:30am S 4 5 - - - - 10 - - 22.5 1020.2 0.6
24/08:00am SW 5 6 - - - - 10 - - 21.1 1019.9 0.6
24/07:30am SSW 2 4 - - - - 10 - - 19.7 1019.7 0.6
24/07:00am SW 4 5 - - - - 10 - - 18.1 1019.7 0.6
24/06:30am SSE 5 6 - - - - 10 - - 16.9 1019.2 0.6
24/06:00am SSE 4 6 - - - - 10 - - 16.5 1019.0 0.6
24/05:30am SSE 4 5 - - - - 10 - - 16.8 1018.8 0.6
24/05:00am S 2 3 - - - - 10 - - 17.4 1018.7 0.6
24/04:30am SSW 5 7 - - - - 10 - - 17.7 1018.8 0.6
24/04:00am WSW 4 6 - - - - 10 - - 17.6 1019.0 0.6
24/03:30am SSE 5 7 - - - - 10 Partly cloudy - 17.7 1019.0 0.6
24/03:23am S 5 7 - - - - 10 Partly cloudy - 17.9 1019.1 0.6
24/03:04am SSW 5 5 - - - - 3 Partly cloudy - 18.1 1019.3 0.6
24/03:00am SSW 4 5 - - - - 10 Partly cloudy - 18.1 1019.4 0.6
24/02:30am SW 2 4 - - - - 10 Partly cloudy - 18.3 1019.4 0.6
24/02:00am S 5 6 - - - - 10 Partly cloudy - 18.7 1019.9 0.6
24/01:30am SW 6 7 - - - - 10 Cloudy - 18.6 1020.2 0.6
24/01:00am SSW 4 5 - - - - 10 Partly cloudy - 18.0 1020.5 0.6
24/12:30am SW 7 9 - - - - 10 Cloudy - 18.4 1020.5 0.6
24/12:00am SSW 4 7 - - - - 10 Cloudy Rain 18.6 1020.6 0.6
 
Date/Time
EST
Wind Sea
Height
m
Swell Vis
km
Cloud Weather Temp
°C
Press
MSL
hPa
Rain since
9am
mm
Dir  Spd
kts
Gust
kts
Height
m
Period
s
Dir
23/11:30pm WSW 6 7 - - - - 10 Cloudy - 18.8 1020.9 0.6
23/11:00pm NE 4 6 - - - - 7 Partly cloudy - 19.4 1021.3 0.6
23/10:30pm SW 8 10 - - - - 10 Partly cloudy - 19.8 1021.2 0.4
23/10:00pm SSE 5 7 - - - - 10 Partly cloudy - 19.6 1021.5 0.4
23/09:30pm SW 4 5 - - - - 10 Partly cloudy - 19.0 1021.3 0.4
23/09:00pm SW 4 5 - - - - 10 Partly cloudy - 19.5 1021.4 0.4
23/08:30pm WSW 4 5 - - - - 10 Partly cloudy - 19.8 1021.3 0.4
23/08:00pm WSW 3 5 - - - - 10 Cloudy - 19.8 1021.3 0.4
23/07:30pm SW 4 5 - - - - 10 Cloudy - 20.1 1021.3 0.4
23/07:00pm SSW 4 5 - - - - 10 Partly cloudy - 20.2 1021.2 0.4
23/06:30pm WSW 5 6 - - - - 10 Partly cloudy - 20.4 1021.1 0.4
23/06:00pm SW 5 7 - - - - 10 Mostly cloudy Rain 20.7 1020.9 0.4
23/05:30pm S 2 4 - - - - 10 Cloudy - 21.2 1020.6 0.4
23/05:00pm E 6 8 - - - - 10 Cloudy - 21.8 1020.5 0.4
23/04:30pm E 12 18 - - - - 10 Cloudy - 21.9 1020.7 0.4
23/04:00pm ESE 12 16 - - - - 10 Cloudy - 22.4 1020.8 0.4
23/03:30pm E 8 11 - - - - 10 Partly cloudy - 22.1 1021.1 0.4
23/03:00pm E 11 16 - - - - 10 Partly cloudy Showers 22.4 1021.4 0.4
23/02:30pm SE 12 17 - - - - 10 Partly cloudy - 25.1 1021.4 0.4
23/02:00pm SSE 10 15 - - - - 10 Partly cloudy - 25.1 1021.5 0.4
23/01:30pm SE 11 16 - - - - 10 Partly cloudy - 25.3 1021.8 0.4
23/01:00pm SSE 6 9 - - - - 10 Partly cloudy - 22.3 1022.0 0.4
23/12:30pm SSE 10 19 - - - - 10 Partly cloudy - 23.8 1022.2 0.0
23/12:00pm S 9 13 - - - - 10 Partly cloudy - 23.1 1022.8 0.0
23/11:30am S 9 12 - - - - 10 Partly cloudy - 23.8 1023.2 0.0
23/11:00am SSE 9 13 - - - - 10 Partly cloudy - 23.6 1023.6 0.0
23/10:30am S 9 15 - - - - 10 Partly cloudy - 23.3 1023.8 0.0
23/10:00am S 10 13 - - - - 10 Partly cloudy - 22.2 1023.8 0.0
23/09:30am SW 9 12 - - - - 10 Partly cloudy - 21.9 1023.8 0.0
23/09:00am SSW 9 15 - - - - 10 Mostly clear Rain 21.6 1024.0 3.6
23/08:30am SSW 6 8 - - - - 10 Partly cloudy - 20.2 1024.0 3.6
23/08:19am SSW 7 8 - - - - 10 Partly cloudy - 19.9 1023.9 3.6
23/08:00am S 8 11 - - - - 6 Partly cloudy - 19.2 1023.9 3.4
23/07:30am SSW 6 9 - - - - 10 Partly cloudy - 19.2 1023.5 2.2
23/07:00am SSW 7 10 - - - - 10 Partly cloudy - 18.9 1023.2 2.2
23/06:30am SSW 7 11 - - - - 10 Partly cloudy - 18.2 1022.8 2.2
23/06:00am SW 5 7 - - - - 10 Mostly cloudy Showers 18.1 1022.5 2.2
23/05:30am SSE 7 12 - - - - 10 Partly cloudy - 18.4 1022.6 2.2
23/05:00am SW 7 10 - - - - 10 Partly cloudy - 18.3 1022.0 1.6
23/04:30am SW 6 10 - - - - 10 Partly cloudy - 18.4 1022.0 1.6
23/04:00am SW 6 9 - - - - 10 Partly cloudy - 18.2 1021.8 1.6
23/03:30am SSW 5 8 - - - - 10 Partly cloudy - 18.2 1021.8 1.6
23/03:00am SSW 7 10 - - - - 10 Cloudy Rain 18.5 1021.8 1.6
23/02:30am SSW 7 10 - - - - 10 Partly cloudy - 18.4 1021.9 1.6
23/02:00am SSW 7 9 - - - - 10 Partly cloudy - 18.3 1022.1 1.6
23/01:30am SSW 7 11 - - - - 10 Partly cloudy - 18.6 1022.4 1.0
23/01:00am SSW 6 9 - - - - 10 Partly cloudy - 18.4 1022.6 1.0
23/12:30am SSW 8 11 - - - - 10 Partly cloudy - 18.3 1022.8 1.0
23/12:00am SSW 7 9 - - - - 10 Cloudy Showers 18.5 1022.8 1.0
 
Date/Time
EST
Wind Sea
Height
m
Swell Vis
km
Cloud Weather Temp
°C
Press
MSL
hPa
Rain since
9am
mm
Dir  Spd
kts
Gust
kts
Height
m
Period
s
Dir
22/11:30pm SSW 6 8 - - - - 10 Partly cloudy - 18.7 1023.0 0.2
22/11:00pm SSW 6 10 - - - - 10 Partly cloudy - 19.1 1023.2 0.2
22/10:30pm SSW 5 7 - - - - 10 Partly cloudy - 18.7 1023.3 0.2
22/10:00pm SSW 6 9 - - - - 10 Partly cloudy - 18.5 1023.4 0.2
22/09:30pm SSW 7 10 - - - - 10 Partly cloudy - 18.7 1023.5 0.2
22/09:00pm SW 6 10 - - - - 10 Mostly cloudy Recent precip. 18.7 1023.6 0.2
22/08:30pm S 7 9 - - - - 10 Partly cloudy - 18.9 1023.7 0.2
22/08:00pm SSW 8 15 - - - - 10 Partly cloudy - 19.4 1023.5 0.2
22/07:30pm S 8 13 - - - - 10 Partly cloudy - 19.8 1023.1 0.2
22/07:00pm SSE 6 11 - - - - 10 Partly cloudy - 19.5 1023.1 0.2
22/06:30pm SSW 9 13 - - - - 10 Partly cloudy - 19.8 1023.0 0.2
22/06:00pm SSW 8 11 - - - - 10 Partly cloudy - 20.4 1022.7 0.2
22/05:30pm SSW 7 12 - - - - 10 Partly cloudy - 21.4 1022.4 0.2
22/05:00pm SSE 13 19 - - - - 10 Partly cloudy - 22.3 1022.2 0.2
22/04:30pm SE 16 23 - - - - 10 Partly cloudy - 22.7 1021.8 0.2
22/04:00pm SE 15 23 - - - - 10 Partly cloudy - 23.1 1021.7 0.2
22/03:30pm SSE 15 21 - - - - 10 Partly cloudy - 23.1 1021.6 0.2
22/03:00pm SSE 17 23 - - - - 10 Cloudy - 23.4 1021.6 0.2
22/02:36pm SE 19 29 - - - - 10 Partly cloudy - 24.6 1021.6 0.2
22/02:30pm SSE 18 27 - - - - 10 Partly cloudy - 23.9 1021.6 0.2
22/02:00pm SE 19 29 - - - - 10 Partly cloudy - 23.5 1021.6 0.2
22/01:51pm SSE 17 29 - - - - 10 Partly cloudy - 23.3 1021.6 0.2
22/01:30pm SSE 16 23 - - - - 10 Partly cloudy - 24.4 1021.7 0.2
22/01:09pm SE 20 30 - - - - 10 Partly cloudy - 24.3 1021.7 0.2
22/01:00pm SSE 20 27 - - - - 10 Partly cloudy - 24.2 1021.8 0.2
22/12:30pm SSE 19 26 - - - - 10 Partly cloudy - 23.8 1022.0 0.2
22/12:06pm SSE 18 28 - - - - 10 Partly cloudy - 24.7 1022.3 0.2
22/12:00pm SSE 19 27 - - - - 10 Mostly clear - 24.6 1022.4 0.2
22/11:30am SE 20 29 - - - - 10 Partly cloudy - 24.7 1022.6 0.2
22/11:07am SSE 15 25 - - - - 10 Partly cloudy - 24.4 1022.9 0.2
22/11:00am SSE 17 25 - - - - 10 Partly cloudy - 24.0 1023.0 0.2
22/10:42am SSE 14 27 - - - - 10 Partly cloudy - 24.7 1023.1 0.2
22/10:30am S 11 18 - - - - 10 Partly cloudy - 22.6 1023.2 0.2
22/10:00am SE 18 25 - - - - 10 Partly cloudy - 22.9 1023.4 0.2
22/09:48am SE 15 25 - - - - 10 Partly cloudy - 23.7 1023.5 0.0
22/09:30am SSE 14 21 - - - - 10 Partly cloudy - 23.9 1023.5 0.0
22/09:11am SSE 15 27 - - - - 10 Partly cloudy - 23.7 1023.6 0.0
22/09:00am S 10 15 - - - - 10 Cloudy Showers 22.5 1023.7 13.6
22/08:30am S 9 12 - - - - 10 Partly cloudy - 22.0 1023.5 13.6
22/08:00am S 9 15 - - - - 10 Partly cloudy - 20.6 1023.4 13.6
22/07:30am S 12 17 - - - - 10 Partly cloudy - 19.0 1023.4 13.6
22/07:00am SSW 9 11 - - - - 10 Partly cloudy - 18.6 1023.2 13.6
22/06:47am S 9 15 - - - - 10 Partly cloudy - 18.6 1023.1 13.6
22/06:36am S 13 25 - - - - 6 Partly cloudy - 18.6 1022.8 13.2
22/06:30am SSW 11 22 - - - - 10 Partly cloudy - 19.1 1022.7 12.6
22/06:00am SSW 7 13 - - - - 10 Cloudy Rain 18.9 1022.2 12.6
22/05:30am SSW 9 13 - - - - 10 Partly cloudy - 19.0 1021.9 12.6
22/05:00am SSW 10 17 - - - - 10 Partly cloudy - 18.8 1021.3 12.6

Other formats

Comma delimited format used in spreadsheet applications
http://www.bom.gov.au/fwo/IDN60701/IDN60701.94592.axf

JavaScript Object Notation format (JSON) in row-major order
http://www.bom.gov.au/fwo/IDN60701/IDN60701.94592.json

Data quality

Most of these data are generated automatically and are frequently updated. Quality checks on data are not normally performed. It is possible for incorrect values to appear. Refer to information at About Latest Weather Observations and please check the disclaimer before using these data.